sensor_id;sensor_type;location;lat;lon;timestamp;P1;durP1;ratioP1;P2;durP2;ratioP2
5722;SDS011;2886;49.722;8.612;2023-04-01T00:02:17;6.57;;;1.27;;
5722;SDS011;2886;49.722;8.612;2023-04-01T00:04:43;2.40;;;1.10;;
5722;SDS011;2886;49.722;8.612;2023-04-01T00:07:09;4.50;;;1.00;;
5722;SDS011;2886;49.722;8.612;2023-04-01T00:09:35;6.70;;;1.40;;
5722;SDS011;2886;49.722;8.612;2023-04-01T00:12:01;2.93;;;1.13;;
5722;SDS011;2886;49.722;8.612;2023-04-01T00:14:27;5.70;;;1.30;;
5722;SDS011;2886;49.722;8.612;2023-04-01T00:16:53;3.63;;;1.10;;
5722;SDS011;2886;49.722;8.612;2023-04-01T00:19:19;1.00;;;0.90;;
5722;SDS011;2886;49.722;8.612;2023-04-01T00:21:44;2.87;;;1.17;;
5722;SDS011;2886;49.722;8.612;2023-04-01T00:24:11;2.70;;;1.00;;
5722;SDS011;2886;49.722;8.612;2023-04-01T00:26:37;3.13;;;1.10;;
5722;SDS011;2886;49.722;8.612;2023-04-01T00:29:02;4.83;;;1.13;;
5722;SDS011;2886;49.722;8.612;2023-04-01T00:31:28;4.40;;;1.10;;
5722;SDS011;2886;49.722;8.612;2023-04-01T00:33:55;2.93;;;1.10;;
5722;SDS011;2886;49.722;8.612;2023-04-01T00:36:21;3.23;;;1.43;;
5722;SDS011;2886;49.722;8.612;2023-04-01T00:38:48;1.37;;;1.10;;
5722;SDS011;2886;49.722;8.612;2023-04-01T00:41:14;3.73;;;1.40;;
5722;SDS011;2886;49.722;8.612;2023-04-01T00:43:46;2.13;;;1.10;;
5722;SDS011;2886;49.722;8.612;2023-04-01T00:46:13;4.87;;;1.07;;
5722;SDS011;2886;49.722;8.612;2023-04-01T00:48:40;2.70;;;1.10;;
5722;SDS011;2886;49.722;8.612;2023-04-01T00:51:09;3.30;;;1.60;;
5722;SDS011;2886;49.722;8.612;2023-04-01T00:53:40;2.83;;;1.13;;
5722;SDS011;2886;49.722;8.612;2023-04-01T00:58:38;4.30;;;1.20;;
5722;SDS011;2886;49.722;8.612;2023-04-01T01:01:16;3.10;;;1.20;;
5722;SDS011;2886;49.722;8.612;2023-04-01T01:03:42;1.60;;;1.03;;
5722;SDS011;2886;49.722;8.612;2023-04-01T01:08:54;3.13;;;1.30;;
5722;SDS011;2886;49.722;8.612;2023-04-01T01:11:48;1.70;;;1.17;;
5722;SDS011;2886;49.722;8.612;2023-04-01T01:17:23;1.90;;;1.20;;
5722;SDS011;2886;49.722;8.612;2023-04-01T01:33:44;1.30;;;0.90;;
5722;SDS011;2886;49.722;8.612;2023-04-01T01:36:34;1.73;;;0.97;;
5722;SDS011;2886;49.722;8.612;2023-04-01T01:39:05;2.33;;;1.10;;
5722;SDS011;2886;49.722;8.612;2023-04-01T01:41:32;1.07;;;0.97;;
5722;SDS011;2886;49.722;8.612;2023-04-01T01:44:01;2.20;;;0.87;;
5722;SDS011;2886;49.722;8.612;2023-04-01T01:46:30;3.13;;;1.00;;
5722;SDS011;2886;49.722;8.612;2023-04-01T01:48:56;5.53;;;1.20;;
5722;SDS011;2886;49.722;8.612;2023-04-01T01:51:25;5.70;;;1.30;;
5722;SDS011;2886;49.722;8.612;2023-04-01T01:53:53;1.87;;;0.97;;
5722;SDS011;2886;49.722;8.612;2023-04-01T01:56:19;2.60;;;1.07;;
5722;SDS011;2886;49.722;8.612;2023-04-01T01:58:49;1.53;;;1.10;;
5722;SDS011;2886;49.722;8.612;2023-04-01T02:01:27;4.27;;;1.33;;
5722;SDS011;2886;49.722;8.612;2023-04-01T02:03:56;3.23;;;1.20;;
5722;SDS011;2886;49.722;8.612;2023-04-01T02:06:23;1.97;;;1.10;;
5722;SDS011;2886;49.722;8.612;2023-04-01T02:08:54;1.87;;;0.83;;
5722;SDS011;2886;49.722;8.612;2023-04-01T02:11:24;3.80;;;1.20;;
5722;SDS011;2886;49.722;8.612;2023-04-01T02:13:56;4.03;;;1.10;;
5722;SDS011;2886;49.722;8.612;2023-04-01T02:16:38;10.53;;;1.30;;
5722;SDS011;2886;49.722;8.612;2023-04-01T02:19:05;1.73;;;0.97;;
5722;SDS011;2886;49.722;8.612;2023-04-01T02:21:35;5.80;;;0.90;;
5722;SDS011;2886;49.722;8.612;2023-04-01T02:24:04;4.50;;;1.10;;
5722;SDS011;2886;49.722;8.612;2023-04-01T02:26:34;5.43;;;1.30;;
5722;SDS011;2886;49.722;8.612;2023-04-01T02:29:00;1.93;;;1.00;;
5722;SDS011;2886;49.722;8.612;2023-04-01T02:31:29;6.63;;;1.33;;
5722;SDS011;2886;49.722;8.612;2023-04-01T02:33:55;1.00;;;0.90;;
5722;SDS011;2886;49.722;8.612;2023-04-01T02:36:22;1.90;;;1.10;;
5722;SDS011;2886;49.722;8.612;2023-04-01T02:38:48;3.87;;;1.50;;
5722;SDS011;2886;49.722;8.612;2023-04-01T02:41:16;1.83;;;1.10;;
5722;SDS011;2886;49.722;8.612;2023-04-01T02:43:41;1.53;;;0.97;;
5722;SDS011;2886;49.722;8.612;2023-04-01T02:46:07;2.93;;;1.23;;
5722;SDS011;2886;49.722;8.612;2023-04-01T02:48:33;5.53;;;1.30;;
5722;SDS011;2886;49.722;8.612;2023-04-01T02:50:58;3.63;;;1.30;;
5722;SDS011;2886;49.722;8.612;2023-04-01T02:53:24;1.80;;;1.00;;
5722;SDS011;2886;49.722;8.612;2023-04-01T02:55:50;2.77;;;1.20;;
5722;SDS011;2886;49.722;8.612;2023-04-01T02:58:17;6.57;;;1.27;;
5722;SDS011;2886;49.722;8.612;2023-04-01T03:00:42;2.20;;;1.00;;
5722;SDS011;2886;49.722;8.612;2023-04-01T03:03:08;3.23;;;1.33;;
5722;SDS011;2886;49.722;8.612;2023-04-01T03:05:34;2.93;;;1.00;;
5722;SDS011;2886;49.722;8.612;2023-04-01T03:08:00;3.17;;;1.00;;
5722;SDS011;2886;49.722;8.612;2023-04-01T03:10:26;1.27;;;0.80;;
5722;SDS011;2886;49.722;8.612;2023-04-01T03:12:52;1.17;;;1.00;;
5722;SDS011;2886;49.722;8.612;2023-04-01T03:15:17;1.70;;;0.80;;
5722;SDS011;2886;49.722;8.612;2023-04-01T03:17:43;1.77;;;1.03;;
5722;SDS011;2886;49.722;8.612;2023-04-01T03:20:09;2.40;;;1.03;;
5722;SDS011;2886;49.722;8.612;2023-04-01T03:22:36;1.97;;;0.93;;
5722;SDS011;2886;49.722;8.612;2023-04-01T03:25:02;4.40;;;1.37;;
5722;SDS011;2886;49.722;8.612;2023-04-01T03:27:28;2.43;;;1.10;;
5722;SDS011;2886;49.722;8.612;2023-04-01T03:29:54;1.73;;;1.07;;
5722;SDS011;2886;49.722;8.612;2023-04-01T03:32:19;3.00;;;1.10;;
5722;SDS011;2886;49.722;8.612;2023-04-01T03:34:45;2.80;;;1.20;;
5722;SDS011;2886;49.722;8.612;2023-04-01T03:37:11;3.80;;;0.80;;
5722;SDS011;2886;49.722;8.612;2023-04-01T03:39:37;1.20;;;0.70;;
5722;SDS011;2886;49.722;8.612;2023-04-01T03:42:03;2.87;;;1.00;;
5722;SDS011;2886;49.722;8.612;2023-04-01T03:44:33;3.37;;;0.90;;
5722;SDS011;2886;49.722;8.612;2023-04-01T03:46:59;2.87;;;1.10;;
5722;SDS011;2886;49.722;8.612;2023-04-01T03:49:25;1.00;;;0.90;;
5722;SDS011;2886;49.722;8.612;2023-04-01T03:51:51;1.13;;;0.80;;
5722;SDS011;2886;49.722;8.612;2023-04-01T03:54:17;2.97;;;1.10;;
5722;SDS011;2886;49.722;8.612;2023-04-01T03:56:44;2.50;;;1.00;;
5722;SDS011;2886;49.722;8.612;2023-04-01T03:59:11;5.63;;;1.00;;
5722;SDS011;2886;49.722;8.612;2023-04-01T04:01:37;7.10;;;1.00;;
5722;SDS011;2886;49.722;8.612;2023-04-01T04:04:03;2.13;;;1.00;;
5722;SDS011;2886;49.722;8.612;2023-04-01T04:06:29;4.13;;;1.20;;
5722;SDS011;2886;49.722;8.612;2023-04-01T04:08:55;2.20;;;1.00;;
5722;SDS011;2886;49.722;8.612;2023-04-01T04:11:21;0.90;;;0.77;;
5722;SDS011;2886;49.722;8.612;2023-04-01T04:13:47;1.27;;;0.87;;
5722;SDS011;2886;49.722;8.612;2023-04-01T04:16:13;3.50;;;1.43;;
5722;SDS011;2886;49.722;8.612;2023-04-01T04:18:39;2.87;;;1.27;;
5722;SDS011;2886;49.722;8.612;2023-04-01T04:21:04;2.13;;;1.00;;
5722;SDS011;2886;49.722;8.612;2023-04-01T04:23:30;1.57;;;0.90;;
5722;SDS011;2886;49.722;8.612;2023-04-01T04:26:02;3.43;;;1.10;;
5722;SDS011;2886;49.722;8.612;2023-04-01T04:28:29;1.30;;;1.20;;
5722;SDS011;2886;49.722;8.612;2023-04-01T04:30:55;1.53;;;0.90;;
5722;SDS011;2886;49.722;8.612;2023-04-01T04:33:21;1.30;;;1.00;;
5722;SDS011;2886;49.722;8.612;2023-04-01T04:35:48;2.00;;;0.80;;
5722;SDS011;2886;49.722;8.612;2023-04-01T04:38:14;5.30;;;1.00;;
5722;SDS011;2886;49.722;8.612;2023-04-01T04:40:40;3.20;;;1.03;;
5722;SDS011;2886;49.722;8.612;2023-04-01T04:43:06;4.83;;;0.90;;
5722;SDS011;2886;49.722;8.612;2023-04-01T04:45:34;1.40;;;1.20;;
5722;SDS011;2886;49.722;8.612;2023-04-01T04:48:00;2.23;;;0.87;;
5722;SDS011;2886;49.722;8.612;2023-04-01T04:50:26;2.90;;;0.87;;
5722;SDS011;2886;49.722;8.612;2023-04-01T04:52:51;1.30;;;0.90;;
5722;SDS011;2886;49.722;8.612;2023-04-01T04:57:47;2.70;;;1.37;;
5722;SDS011;2886;49.722;8.612;2023-04-01T05:00:13;6.83;;;1.27;;
5722;SDS011;2886;49.722;8.612;2023-04-01T05:02:39;1.60;;;0.80;;
5722;SDS011;2886;49.722;8.612;2023-04-01T05:05:05;5.70;;;1.00;;
5722;SDS011;2886;49.722;8.612;2023-04-01T05:07:31;2.17;;;0.90;;
5722;SDS011;2886;49.722;8.612;2023-04-01T05:09:57;3.93;;;1.03;;
5722;SDS011;2886;49.722;8.612;2023-04-01T05:12:23;3.37;;;0.97;;
5722;SDS011;2886;49.722;8.612;2023-04-01T05:14:48;3.00;;;0.90;;
5722;SDS011;2886;49.722;8.612;2023-04-01T05:17:14;1.70;;;0.77;;
5722;SDS011;2886;49.722;8.612;2023-04-01T05:19:40;1.23;;;1.00;;
5722;SDS011;2886;49.722;8.612;2023-04-01T05:22:05;1.73;;;1.10;;
5722;SDS011;2886;49.722;8.612;2023-04-01T05:24:31;5.80;;;1.27;;
5722;SDS011;2886;49.722;8.612;2023-04-01T05:26:57;3.30;;;0.93;;
5722;SDS011;2886;49.722;8.612;2023-04-01T05:29:24;3.27;;;1.20;;
5722;SDS011;2886;49.722;8.612;2023-04-01T05:31:50;2.03;;;0.90;;
5722;SDS011;2886;49.722;8.612;2023-04-01T05:34:16;3.20;;;1.00;;
5722;SDS011;2886;49.722;8.612;2023-04-01T05:36:42;1.83;;;1.20;;
5722;SDS011;2886;49.722;8.612;2023-04-01T05:39:08;1.43;;;0.90;;
5722;SDS011;2886;49.722;8.612;2023-04-01T05:41:35;2.30;;;1.00;;
5722;SDS011;2886;49.722;8.612;2023-04-01T05:44:01;2.60;;;1.07;;
5722;SDS011;2886;49.722;8.612;2023-04-01T05:46:27;1.97;;;0.90;;
5722;SDS011;2886;49.722;8.612;2023-04-01T05:48:53;2.90;;;0.80;;
5722;SDS011;2886;49.722;8.612;2023-04-01T05:51:18;1.93;;;0.90;;
5722;SDS011;2886;49.722;8.612;2023-04-01T05:53:44;2.17;;;1.00;;
5722;SDS011;2886;49.722;8.612;2023-04-01T05:56:10;1.77;;;0.93;;
5722;SDS011;2886;49.722;8.612;2023-04-01T05:58:36;4.73;;;1.30;;
5722;SDS011;2886;49.722;8.612;2023-04-01T06:01:02;1.60;;;1.00;;
5722;SDS011;2886;49.722;8.612;2023-04-01T06:03:29;2.40;;;0.97;;
5722;SDS011;2886;49.722;8.612;2023-04-01T06:05:55;3.00;;;0.77;;
5722;SDS011;2886;49.722;8.612;2023-04-01T06:08:21;1.17;;;0.80;;
5722;SDS011;2886;49.722;8.612;2023-04-01T06:11:01;1.73;;;1.10;;
5722;SDS011;2886;49.722;8.612;2023-04-01T06:13:48;4.20;;;0.93;;
5722;SDS011;2886;49.722;8.612;2023-04-01T06:30:38;1.47;;;0.90;;
5722;SDS011;2886;49.722;8.612;2023-04-01T06:41:54;1.30;;;0.67;;
5722;SDS011;2886;49.722;8.612;2023-04-01T06:53:02;2.50;;;0.87;;
5722;SDS011;2886;49.722;8.612;2023-04-01T06:55:47;4.50;;;4.10;;
5722;SDS011;2886;49.722;8.612;2023-04-01T06:58:22;3.57;;;1.83;;
5722;SDS011;2886;49.722;8.612;2023-04-01T07:00:52;1.00;;;0.80;;
5722;SDS011;2886;49.722;8.612;2023-04-01T07:03:32;2.30;;;0.80;;
5722;SDS011;2886;49.722;8.612;2023-04-01T07:06:04;1.73;;;0.93;;
5722;SDS011;2886;49.722;8.612;2023-04-01T07:08:36;5.13;;;0.90;;
5722;SDS011;2886;49.722;8.612;2023-04-01T07:11:06;3.07;;;0.73;;
5722;SDS011;2886;49.722;8.612;2023-04-01T07:16:34;1.90;;;0.80;;
5722;SDS011;2886;49.722;8.612;2023-04-01T07:19:06;1.73;;;0.80;;
5722;SDS011;2886;49.722;8.612;2023-04-01T07:24:15;2.97;;;1.07;;
5722;SDS011;2886;49.722;8.612;2023-04-01T07:26:54;1.53;;;0.90;;
5722;SDS011;2886;49.722;8.612;2023-04-01T07:29:22;1.17;;;0.80;;
5722;SDS011;2886;49.722;8.612;2023-04-01T07:34:39;2.60;;;0.90;;
5722;SDS011;2886;49.722;8.612;2023-04-01T07:37:37;1.10;;;0.70;;
5722;SDS011;2886;49.722;8.612;2023-04-01T07:45:47;1.93;;;0.80;;
5722;SDS011;2886;49.722;8.612;2023-04-01T07:48:33;0.80;;;0.73;;
5722;SDS011;2886;49.722;8.612;2023-04-01T07:51:10;2.23;;;1.13;;
5722;SDS011;2886;49.722;8.612;2023-04-01T07:58:56;1.10;;;0.70;;
5722;SDS011;2886;49.722;8.612;2023-04-01T08:09:44;2.43;;;1.00;;
5722;SDS011;2886;49.722;8.612;2023-04-01T08:20:45;1.13;;;0.70;;
5722;SDS011;2886;49.722;8.612;2023-04-01T08:26:08;1.23;;;0.77;;
5722;SDS011;2886;49.722;8.612;2023-04-01T08:28:33;3.37;;;0.90;;
5722;SDS011;2886;49.722;8.612;2023-04-01T08:31:05;1.13;;;0.90;;
5722;SDS011;2886;49.722;8.612;2023-04-01T08:33:37;1.47;;;0.83;;
5722;SDS011;2886;49.722;8.612;2023-04-01T08:36:09;1.10;;;1.00;;
5722;SDS011;2886;49.722;8.612;2023-04-01T08:39:12;3.63;;;1.07;;
5722;SDS011;2886;49.722;8.612;2023-04-01T08:44:46;1.10;;;0.70;;
5722;SDS011;2886;49.722;8.612;2023-04-01T08:50:36;1.67;;;0.90;;
5722;SDS011;2886;49.722;8.612;2023-04-01T08:53:13;2.30;;;0.80;;
5722;SDS011;2886;49.722;8.612;2023-04-01T08:56:23;3.27;;;1.07;;
5722;SDS011;2886;49.722;8.612;2023-04-01T09:07:11;1.07;;;0.80;;
5722;SDS011;2886;49.722;8.612;2023-04-01T09:10:11;2.33;;;0.80;;
5722;SDS011;2886;49.722;8.612;2023-04-01T09:16:06;1.30;;;1.20;;
5722;SDS011;2886;49.722;8.612;2023-04-01T09:18:58;1.00;;;0.90;;
5722;SDS011;2886;49.722;8.612;2023-04-01T09:27:28;1.00;;;0.80;;
5722;SDS011;2886;49.722;8.612;2023-04-01T09:30:19;2.40;;;1.13;;
5722;SDS011;2886;49.722;8.612;2023-04-01T09:35:50;7.30;;;1.00;;
5722;SDS011;2886;49.722;8.612;2023-04-01T09:38:31;2.20;;;0.87;;
5722;SDS011;2886;49.722;8.612;2023-04-01T09:41:31;1.07;;;0.67;;
5722;SDS011;2886;49.722;8.612;2023-04-01T09:44:09;1.40;;;0.80;;
5722;SDS011;2886;49.722;8.612;2023-04-01T09:58:02;1.00;;;0.80;;
5722;SDS011;2886;49.722;8.612;2023-04-01T10:09:39;1.23;;;0.90;;
5722;SDS011;2886;49.722;8.612;2023-04-01T10:46:39;0.80;;;0.70;;
5722;SDS011;2886;49.722;8.612;2023-04-01T10:49:46;1.90;;;0.80;;
5722;SDS011;2886;49.722;8.612;2023-04-01T10:55:37;1.30;;;1.10;;
5722;SDS011;2886;49.722;8.612;2023-04-01T11:23:08;0.93;;;0.67;;
5722;SDS011;2886;49.722;8.612;2023-04-01T11:32:05;0.80;;;0.80;;
5722;SDS011;2886;49.722;8.612;2023-04-01T11:34:43;0.80;;;0.70;;
5722;SDS011;2886;49.722;8.612;2023-04-01T11:37:38;1.33;;;0.90;;
5722;SDS011;2886;49.722;8.612;2023-04-01T11:40:23;1.40;;;0.80;;
5722;SDS011;2886;49.722;8.612;2023-04-01T11:46:14;5.13;;;0.93;;
5722;SDS011;2886;49.722;8.612;2023-04-01T11:48:55;2.20;;;0.90;;
5722;SDS011;2886;49.722;8.612;2023-04-01T11:57:40;0.80;;;0.80;;
5722;SDS011;2886;49.722;8.612;2023-04-01T12:00:28;1.93;;;0.90;;
5722;SDS011;2886;49.722;8.612;2023-04-01T12:12:03;4.93;;;0.90;;
5722;SDS011;2886;49.722;8.612;2023-04-01T12:18:10;1.50;;;0.80;;
5722;SDS011;2886;49.722;8.612;2023-04-01T12:20:51;1.00;;;0.90;;
5722;SDS011;2886;49.722;8.612;2023-04-01T12:46:01;1.17;;;1.07;;
5722;SDS011;2886;49.722;8.612;2023-04-01T12:48:46;1.10;;;0.90;;
5722;SDS011;2886;49.722;8.612;2023-04-01T12:54:23;0.93;;;0.93;;
5722;SDS011;2886;49.722;8.612;2023-04-01T12:57:03;1.60;;;1.07;;
5722;SDS011;2886;49.722;8.612;2023-04-01T13:03:32;2.17;;;0.90;;
5722;SDS011;2886;49.722;8.612;2023-04-01T13:19:58;1.83;;;0.90;;
5722;SDS011;2886;49.722;8.612;2023-04-01T13:28:28;1.53;;;0.93;;
5722;SDS011;2886;49.722;8.612;2023-04-01T13:36:28;6.00;;;1.13;;
5722;SDS011;2886;49.722;8.612;2023-04-01T13:42:12;2.90;;;1.00;;
5722;SDS011;2886;49.722;8.612;2023-04-01T13:44:48;1.10;;;0.80;;
5722;SDS011;2886;49.722;8.612;2023-04-01T13:49:58;0.80;;;0.80;;
5722;SDS011;2886;49.722;8.612;2023-04-01T13:58:43;2.40;;;1.23;;
5722;SDS011;2886;49.722;8.612;2023-04-01T14:07:32;1.13;;;0.90;;
5722;SDS011;2886;49.722;8.612;2023-04-01T14:10:18;1.47;;;1.27;;
5722;SDS011;2886;49.722;8.612;2023-04-01T14:15:47;1.60;;;1.33;;
5722;SDS011;2886;49.722;8.612;2023-04-01T14:21:04;1.43;;;1.10;;
5722;SDS011;2886;49.722;8.612;2023-04-01T14:33:04;3.13;;;1.17;;
5722;SDS011;2886;49.722;8.612;2023-04-01T14:38:22;3.47;;;1.00;;
5722;SDS011;2886;49.722;8.612;2023-04-01T14:52:49;0.80;;;0.80;;
5722;SDS011;2886;49.722;8.612;2023-04-01T14:55:00;0.97;;;0.87;;
5722;SDS011;2886;49.722;8.612;2023-04-01T14:57:36;1.50;;;1.00;;
5722;SDS011;2886;49.722;8.612;2023-04-01T15:00:15;8.57;;;0.90;;
5722;SDS011;2886;49.722;8.612;2023-04-01T15:08:33;1.20;;;1.10;;
5722;SDS011;2886;49.722;8.612;2023-04-01T15:14:01;1.53;;;1.20;;
5722;SDS011;2886;49.722;8.612;2023-04-01T15:16:34;2.00;;;1.20;;
5722;SDS011;2886;49.722;8.612;2023-04-01T15:22:06;0.80;;;0.80;;
5722;SDS011;2886;49.722;8.612;2023-04-01T15:27:37;2.70;;;1.20;;
5722;SDS011;2886;49.722;8.612;2023-04-01T15:35:51;4.53;;;1.20;;
5722;SDS011;2886;49.722;8.612;2023-04-01T15:38:56;1.30;;;1.20;;
5722;SDS011;2886;49.722;8.612;2023-04-01T16:21:07;1.03;;;0.87;;
5722;SDS011;2886;49.722;8.612;2023-04-01T16:27:16;2.33;;;1.00;;
5722;SDS011;2886;49.722;8.612;2023-04-01T16:32:36;2.43;;;1.10;;
5722;SDS011;2886;49.722;8.612;2023-04-01T16:40:47;1.90;;;0.90;;
5722;SDS011;2886;49.722;8.612;2023-04-01T16:43:43;1.57;;;1.00;;
5722;SDS011;2886;49.722;8.612;2023-04-01T16:51:48;1.13;;;0.90;;
5722;SDS011;2886;49.722;8.612;2023-04-01T16:54:51;1.10;;;0.80;;
5722;SDS011;2886;49.722;8.612;2023-04-01T16:57:26;2.67;;;0.90;;
5722;SDS011;2886;49.722;8.612;2023-04-01T17:00:18;0.90;;;0.80;;
5722;SDS011;2886;49.722;8.612;2023-04-01T17:11:50;1.93;;;1.00;;
5722;SDS011;2886;49.722;8.612;2023-04-01T17:14:32;1.00;;;0.80;;
5722;SDS011;2886;49.722;8.612;2023-04-01T17:28:11;0.80;;;0.80;;
5722;SDS011;2886;49.722;8.612;2023-04-01T17:41:58;1.00;;;0.90;;
5722;SDS011;2886;49.722;8.612;2023-04-01T17:44:40;1.10;;;0.87;;
5722;SDS011;2886;49.722;8.612;2023-04-01T17:50:15;0.93;;;0.83;;
5722;SDS011;2886;49.722;8.612;2023-04-01T17:53:05;1.13;;;1.00;;
5722;SDS011;2886;49.722;8.612;2023-04-01T17:56:02;0.80;;;0.80;;
5722;SDS011;2886;49.722;8.612;2023-04-01T17:58:42;0.80;;;0.73;;
5722;SDS011;2886;49.722;8.612;2023-04-01T18:18:50;3.47;;;1.20;;
5722;SDS011;2886;49.722;8.612;2023-04-01T18:24:27;2.70;;;0.93;;
5722;SDS011;2886;49.722;8.612;2023-04-01T18:29:48;1.43;;;1.13;;
5722;SDS011;2886;49.722;8.612;2023-04-01T18:32:37;1.47;;;0.80;;
5722;SDS011;2886;49.722;8.612;2023-04-01T18:46:27;2.07;;;1.00;;
5722;SDS011;2886;49.722;8.612;2023-04-01T18:49:21;1.20;;;1.10;;
5722;SDS011;2886;49.722;8.612;2023-04-01T18:52:02;1.00;;;0.90;;
5722;SDS011;2886;49.722;8.612;2023-04-01T18:54:40;1.50;;;1.00;;
5722;SDS011;2886;49.722;8.612;2023-04-01T18:57:25;1.00;;;0.80;;
5722;SDS011;2886;49.722;8.612;2023-04-01T19:00:04;1.13;;;1.03;;
5722;SDS011;2886;49.722;8.612;2023-04-01T19:02:41;1.17;;;1.00;;
5722;SDS011;2886;49.722;8.612;2023-04-01T19:07:48;2.43;;;1.07;;
5722;SDS011;2886;49.722;8.612;2023-04-01T19:10:37;0.80;;;0.80;;
5722;SDS011;2886;49.722;8.612;2023-04-01T19:20:58;1.00;;;0.90;;
5722;SDS011;2886;49.722;8.612;2023-04-01T19:26:22;4.83;;;1.57;;
5722;SDS011;2886;49.722;8.612;2023-04-01T19:28:56;1.40;;;1.30;;
5722;SDS011;2886;49.722;8.612;2023-04-01T19:32:05;1.23;;;1.13;;
5722;SDS011;2886;49.722;8.612;2023-04-01T19:42:57;1.20;;;1.10;;
5722;SDS011;2886;49.722;8.612;2023-04-01T19:45:47;3.30;;;1.43;;
5722;SDS011;2886;49.722;8.612;2023-04-01T20:04:44;1.10;;;1.00;;
5722;SDS011;2886;49.722;8.612;2023-04-01T20:07:35;1.83;;;1.30;;
5722;SDS011;2886;49.722;8.612;2023-04-01T20:10:17;1.10;;;1.00;;
5722;SDS011;2886;49.722;8.612;2023-04-01T20:13:06;1.20;;;1.10;;
5722;SDS011;2886;49.722;8.612;2023-04-01T20:15:58;1.93;;;1.30;;
5722;SDS011;2886;49.722;8.612;2023-04-01T20:18:37;1.57;;;1.30;;
5722;SDS011;2886;49.722;8.612;2023-04-01T20:26:33;1.30;;;1.20;;
5722;SDS011;2886;49.722;8.612;2023-04-01T20:29:12;3.10;;;1.33;;
5722;SDS011;2886;49.722;8.612;2023-04-01T20:31:43;1.97;;;1.77;;
5722;SDS011;2886;49.722;8.612;2023-04-01T20:34:26;1.60;;;1.50;;
5722;SDS011;2886;49.722;8.612;2023-04-01T20:46:00;3.47;;;1.40;;
5722;SDS011;2886;49.722;8.612;2023-04-01T20:52:01;1.60;;;1.40;;
5722;SDS011;2886;49.722;8.612;2023-04-01T20:54:40;1.20;;;1.10;;
5722;SDS011;2886;49.722;8.612;2023-04-01T20:57:19;1.93;;;1.57;;
5722;SDS011;2886;49.722;8.612;2023-04-01T21:02:56;1.60;;;1.20;;
5722;SDS011;2886;49.722;8.612;2023-04-01T21:17:02;2.30;;;1.77;;
5722;SDS011;2886;49.722;8.612;2023-04-01T21:22:36;2.13;;;1.70;;
5722;SDS011;2886;49.722;8.612;2023-04-01T21:27:50;1.77;;;1.20;;
5722;SDS011;2886;49.722;8.612;2023-04-01T21:38:41;2.27;;;1.73;;
5722;SDS011;2886;49.722;8.612;2023-04-01T22:00:38;1.27;;;1.17;;
5722;SDS011;2886;49.722;8.612;2023-04-01T22:14:05;4.40;;;1.50;;
5722;SDS011;2886;49.722;8.612;2023-04-01T22:16:56;2.10;;;1.37;;
5722;SDS011;2886;49.722;8.612;2023-04-01T22:22:23;1.67;;;1.57;;
5722;SDS011;2886;49.722;8.612;2023-04-01T22:27:37;1.83;;;1.50;;
5722;SDS011;2886;49.722;8.612;2023-04-01T22:30:17;2.27;;;1.83;;
5722;SDS011;2886;49.722;8.612;2023-04-01T22:32:49;2.33;;;1.57;;
5722;SDS011;2886;49.722;8.612;2023-04-01T22:38:21;5.13;;;2.33;;
5722;SDS011;2886;49.722;8.612;2023-04-01T22:41:52;1.60;;;1.50;;
5722;SDS011;2886;49.722;8.612;2023-04-01T22:47:11;1.90;;;1.80;;
5722;SDS011;2886;49.722;8.612;2023-04-01T22:52:44;1.63;;;1.50;;
5722;SDS011;2886;49.722;8.612;2023-04-01T22:55:24;2.23;;;1.70;;
5722;SDS011;2886;49.722;8.612;2023-04-01T22:57:56;1.93;;;1.67;;
5722;SDS011;2886;49.722;8.612;2023-04-01T23:00:43;3.33;;;2.20;;
5722;SDS011;2886;49.722;8.612;2023-04-01T23:03:14;3.67;;;1.93;;
5722;SDS011;2886;49.722;8.612;2023-04-01T23:06:02;4.13;;;2.30;;
5722;SDS011;2886;49.722;8.612;2023-04-01T23:11:17;4.20;;;2.20;;
5722;SDS011;2886;49.722;8.612;2023-04-01T23:13:49;2.30;;;1.90;;
5722;SDS011;2886;49.722;8.612;2023-04-01T23:16:29;3.00;;;1.77;;
5722;SDS011;2886;49.722;8.612;2023-04-01T23:21:54;3.50;;;2.17;;
5722;SDS011;2886;49.722;8.612;2023-04-01T23:24:57;3.07;;;2.10;;
5722;SDS011;2886;49.722;8.612;2023-04-01T23:27:40;3.97;;;1.90;;
5722;SDS011;2886;49.722;8.612;2023-04-01T23:33:10;2.30;;;1.83;;
5722;SDS011;2886;49.722;8.612;2023-04-01T23:36:13;3.50;;;2.40;;
5722;SDS011;2886;49.722;8.612;2023-04-01T23:38:39;3.23;;;2.03;;
5722;SDS011;2886;49.722;8.612;2023-04-01T23:41:07;2.33;;;2.07;;
5722;SDS011;2886;49.722;8.612;2023-04-01T23:43:43;2.37;;;1.67;;
5722;SDS011;2886;49.722;8.612;2023-04-01T23:46:10;4.10;;;2.47;;
5722;SDS011;2886;49.722;8.612;2023-04-01T23:48:39;3.30;;;2.10;;
5722;SDS011;2886;49.722;8.612;2023-04-01T23:51:25;6.80;;;2.40;;
5722;SDS011;2886;49.722;8.612;2023-04-01T23:53:56;2.50;;;2.10;;
5722;SDS011;2886;49.722;8.612;2023-04-01T23:57:03;2.37;;;2.17;;
5722;SDS011;2886;49.722;8.612;2023-04-01T23:59:28;3.40;;;1.90;;
